createdAt,value
2018-09-11T00:00:06.000Z,29.9
2018-09-11T00:02:06.000Z,30
2018-09-11T00:03:05.000Z,30
2018-09-11T00:04:05.000Z,30
2018-09-11T00:05:05.000Z,30
2018-09-11T00:07:05.000Z,30
2018-09-11T00:09:05.000Z,29.9
2018-09-11T00:11:05.000Z,29.9
2018-09-11T00:12:05.000Z,29.8
2018-09-11T00:13:05.000Z,29.9
2018-09-11T00:15:05.000Z,29.9
2018-09-11T00:17:05.000Z,29.8
2018-09-11T00:19:05.000Z,29.7
2018-09-11T00:20:05.000Z,29.7
2018-09-11T00:22:05.000Z,29.7
2018-09-11T00:23:05.000Z,29.7
2018-09-11T00:25:05.000Z,29.8
2018-09-11T00:26:05.000Z,29.8
2018-09-11T00:28:05.000Z,29.8
2018-09-11T00:30:05.000Z,29.7
2018-09-11T00:32:05.000Z,29.6
2018-09-11T00:33:05.000Z,29.6
2018-09-11T00:34:05.000Z,29.7
2018-09-11T00:35:05.000Z,29.8
2018-09-11T00:37:05.000Z,29.8
2018-09-11T00:38:05.000Z,29.8
2018-09-11T00:40:05.000Z,29.9
2018-09-11T00:41:05.000Z,29.9
2018-09-11T00:43:05.000Z,29.9
2018-09-11T00:44:05.000Z,29.9
2018-09-11T00:46:05.000Z,29.8
2018-09-11T00:48:05.000Z,29.7
2018-09-11T00:49:05.000Z,29.7
2018-09-11T00:50:05.000Z,29.8
2018-09-11T00:52:05.000Z,29.8
2018-09-11T00:54:05.000Z,29.7
2018-09-11T00:56:05.000Z,29.6
2018-09-11T00:58:05.000Z,29.6
2018-09-11T00:59:05.000Z,29.6
2018-09-11T01:01:05.000Z,29.6
2018-09-11T01:03:05.000Z,29.6
2018-09-11T01:04:05.000Z,29.6
2018-09-11T01:05:05.000Z,29.6
2018-09-11T01:07:06.000Z,29.6
2018-09-11T01:09:06.000Z,29.6
2018-09-11T01:10:06.000Z,29.6
2018-09-11T01:12:06.000Z,29.6
2018-09-11T01:13:06.000Z,29.7
2018-09-11T01:14:06.000Z,29.7
2018-09-11T01:16:06.000Z,29.7
2018-09-11T01:18:06.000Z,29.6
2018-09-11T01:19:06.000Z,29.6
2018-09-11T01:21:06.000Z,29.5
2018-09-11T01:22:06.000Z,29.5
2018-09-11T01:23:51.000Z,29.6
2018-09-11T01:25:06.000Z,29.6
2018-09-11T01:27:06.000Z,29.5
2018-09-11T01:28:06.000Z,29.5
2018-09-11T01:29:06.000Z,29.5
2018-09-11T01:30:06.000Z,29.6
2018-09-11T01:32:06.000Z,29.6
2018-09-11T01:33:06.000Z,29.6
2018-09-11T01:34:06.000Z,29.7
2018-09-11T01:36:06.000Z,29.8
2018-09-11T01:38:06.000Z,29.7
2018-09-11T01:40:06.000Z,29.6
2018-09-11T01:41:06.000Z,29.6
2018-09-11T01:42:06.000Z,29.6
2018-09-11T01:44:06.000Z,29.6
2018-09-11T01:45:06.000Z,29.6
2018-09-11T01:46:06.000Z,29.6
2018-09-11T01:48:06.000Z,29.7
2018-09-11T01:49:06.000Z,29.6
2018-09-11T01:50:06.000Z,29.7
2018-09-11T01:52:06.000Z,29.7
2018-09-11T01:54:06.000Z,29.7
2018-09-11T01:55:06.000Z,29.7
2018-09-11T01:56:06.000Z,29.7
2018-09-11T01:57:06.000Z,29.8
2018-09-11T01:59:06.000Z,29.8
2018-09-11T02:00:06.000Z,29.9
2018-09-11T02:02:06.000Z,29.8
2018-09-11T02:04:06.000Z,29.8
2018-09-11T02:06:06.000Z,29.7
2018-09-11T02:07:06.000Z,29.7
2018-09-11T02:08:06.000Z,29.8
2018-09-11T02:09:06.000Z,29.8
2018-09-11T02:10:50.000Z,29.9
2018-09-11T02:12:05.000Z,29.8
2018-09-11T02:14:05.000Z,29.8
2018-09-11T02:15:05.000Z,29.8
2018-09-11T02:17:05.000Z,29.8
2018-09-11T02:19:05.000Z,29.7
2018-09-11T02:21:05.000Z,29.6
2018-09-11T02:22:05.000Z,29.6
2018-09-11T02:24:05.000Z,29.6
2018-09-11T02:26:05.000Z,29.6
2018-09-11T02:28:05.000Z,29.5
2018-09-11T02:30:05.000Z,29.4
2018-09-11T02:31:05.000Z,29.4
2018-09-11T02:32:05.000Z,29.4
2018-09-11T02:34:05.000Z,29.4
2018-09-11T02:36:05.000Z,29.4
2018-09-11T02:37:05.000Z,29.4
2018-09-11T02:39:05.000Z,29.5
2018-09-11T02:41:05.000Z,29.4
2018-09-11T02:42:05.000Z,29.4
2018-09-11T02:43:05.000Z,29.5
2018-09-11T02:45:05.000Z,29.5
2018-09-11T02:47:05.000Z,29.5
2018-09-11T02:49:05.000Z,29.5
2018-09-11T02:50:05.000Z,29.5
2018-09-11T02:51:05.000Z,29.6
2018-09-11T02:53:05.000Z,29.6
2018-09-11T02:54:05.000Z,29.6
2018-09-11T02:56:05.000Z,29.7
2018-09-11T02:57:05.000Z,29.7
2018-09-11T02:59:05.000Z,29.6
2018-09-11T03:01:05.000Z,29.5
2018-09-11T03:03:05.000Z,29.5
2018-09-11T03:04:05.000Z,29.5
2018-09-11T03:06:05.000Z,29.5
2018-09-11T03:07:05.000Z,29.5
2018-09-11T03:08:05.000Z,29.6
2018-09-11T03:10:05.000Z,29.6
2018-09-11T03:11:05.000Z,29.7
2018-09-11T03:13:05.000Z,29.6
2018-09-11T03:14:05.000Z,29.6
2018-09-11T03:16:05.000Z,29.6
2018-09-11T03:17:05.000Z,29.6
2018-09-11T03:18:05.000Z,29.7
2018-09-11T03:20:05.000Z,29.7
2018-09-11T03:22:05.000Z,29.7
2018-09-11T03:23:05.000Z,29.7
2018-09-11T03:24:05.000Z,29.7
2018-09-11T03:25:05.000Z,29.7
2018-09-11T03:27:05.000Z,29.7
2018-09-11T03:29:05.000Z,29.6
2018-09-11T03:30:05.000Z,29.6
2018-09-11T03:32:05.000Z,29.5
2018-09-11T03:34:05.000Z,29.5
2018-09-11T03:35:05.000Z,29.5
2018-09-11T03:36:05.000Z,29.5
2018-09-11T03:38:05.000Z,29.5
2018-09-11T03:39:05.000Z,29.5
2018-09-11T03:41:05.000Z,29.5
2018-09-11T03:42:05.000Z,29.6
2018-09-11T03:44:05.000Z,29.6
2018-09-11T03:46:05.000Z,29.6
2018-09-11T03:48:05.000Z,29.5
2018-09-11T03:49:05.000Z,29.5
2018-09-11T03:51:05.000Z,29.6
2018-09-11T03:52:50.000Z,29.6
2018-09-11T03:54:05.000Z,29.5
2018-09-11T03:55:05.000Z,29.5
2018-09-11T03:56:05.000Z,29.5
2018-09-11T03:57:05.000Z,29.6
2018-09-11T03:59:05.000Z,29.6
2018-09-11T04:01:05.000Z,29.5
2018-09-11T04:03:05.000Z,29.4
2018-09-11T04:04:05.000Z,29.4
2018-09-11T04:06:05.000Z,29.4
2018-09-11T04:08:05.000Z,29.4
2018-09-11T04:09:05.000Z,29.4
2018-09-11T04:10:05.000Z,29.5
2018-09-11T04:11:50.000Z,29.6
2018-09-11T04:13:05.000Z,29.5
2018-09-11T04:14:05.000Z,29.5
2018-09-11T04:16:05.000Z,29.5
2018-09-11T04:18:05.000Z,29.5
2018-09-11T04:19:05.000Z,29.5
2018-09-11T04:20:05.000Z,29.6
2018-09-11T04:21:05.000Z,29.6
2018-09-11T04:23:05.000Z,29.6
2018-09-11T04:25:05.000Z,29.3
2018-09-11T04:27:05.000Z,28.9
2018-09-11T04:28:05.000Z,28.7
2018-09-11T04:30:05.000Z,28.3
2018-09-11T04:32:05.000Z,28
2018-09-11T04:33:05.000Z,28
2018-09-11T04:35:05.000Z,27.9
2018-09-11T04:36:05.000Z,27.8
2018-09-11T04:38:05.000Z,27.8
2018-09-11T04:40:05.000Z,27.6
2018-09-11T04:42:05.000Z,27.5
2018-09-11T04:43:05.000Z,27.5
2018-09-11T04:45:05.000Z,27.5
2018-09-11T04:47:05.000Z,27.4
2018-09-11T04:49:05.000Z,27.3
2018-09-11T04:50:05.000Z,27.3
2018-09-11T04:51:05.000Z,27.4
2018-09-11T04:53:05.000Z,27.4
2018-09-11T04:54:05.000Z,27.5
2018-09-11T04:56:05.000Z,27.5
2018-09-11T04:57:05.000Z,27.5
2018-09-11T04:59:05.000Z,27.5
2018-09-11T05:00:50.000Z,27.5
2018-09-11T05:02:05.000Z,27.4
2018-09-11T05:03:05.000Z,27.4
2018-09-11T05:05:05.000Z,27.5
2018-09-11T05:06:05.000Z,27.5
2018-09-11T05:08:05.000Z,27.6
2018-09-11T05:10:05.000Z,27.5
2018-09-11T05:12:05.000Z,27.5
2018-09-11T05:13:05.000Z,27.5
2018-09-11T05:15:05.000Z,27.5
2018-09-11T05:17:05.000Z,27.4
2018-09-11T05:19:05.000Z,27.4
2018-09-11T05:21:05.000Z,27.4
2018-09-11T05:22:05.000Z,27.5
2018-09-11T05:24:05.000Z,27.5
2018-09-11T05:25:05.000Z,27.5
2018-09-11T05:26:05.000Z,27.5
2018-09-11T05:28:05.000Z,27.5
2018-09-11T05:29:50.000Z,27.5
2018-09-11T05:31:05.000Z,27.5
2018-09-11T05:33:05.000Z,27.4
2018-09-11T05:35:05.000Z,27.3
2018-09-11T05:37:05.000Z,27.2
2018-09-11T05:38:06.000Z,27.2
2018-09-11T05:40:05.000Z,27.2
2018-09-11T05:41:05.000Z,27.3
2018-09-11T05:43:05.000Z,27.3
2018-09-11T05:44:05.000Z,27.3
2018-09-11T05:46:05.000Z,27.3
2018-09-11T05:47:05.000Z,27.4
2018-09-11T05:49:05.000Z,27.4
2018-09-11T05:51:05.000Z,27.4
2018-09-11T05:52:05.000Z,27.4
2018-09-11T05:54:05.000Z,27.5
2018-09-11T05:55:05.000Z,27.5
2018-09-11T05:56:05.000Z,27.5
2018-09-11T05:58:05.000Z,27.6
2018-09-11T06:00:05.000Z,27.5
2018-09-11T06:04:05.000Z,27.4
2018-09-11T06:06:05.000Z,27.4
2018-09-11T06:07:05.000Z,27.4
2018-09-11T06:09:05.000Z,27.3
2018-09-11T06:10:05.000Z,27.3
2018-09-11T06:11:05.000Z,27.4
2018-09-11T06:13:05.000Z,27.5
2018-09-11T06:15:05.000Z,27.4
2018-09-11T06:17:05.000Z,27.4
2018-09-11T06:18:05.000Z,27.5
2018-09-11T06:20:05.000Z,27.6
2018-09-11T06:21:05.000Z,27.7
2018-09-11T06:22:05.000Z,27.7
2018-09-11T06:23:50.000Z,27.9
2018-09-11T06:25:05.000Z,27.8
2018-09-11T06:27:05.000Z,27.8
2018-09-11T06:28:05.000Z,27.8
2018-09-11T06:29:05.000Z,27.8
2018-09-11T06:30:05.000Z,27.9
2018-09-11T06:32:05.000Z,28
2018-09-11T06:34:05.000Z,28.1
2018-09-11T06:36:05.000Z,28.1
2018-09-11T06:38:05.000Z,28.1
2018-09-11T06:40:05.000Z,28.3
2018-09-11T06:41:05.000Z,28.3
2018-09-11T06:42:05.000Z,28.4
2018-09-11T06:44:05.000Z,28.5
2018-09-11T06:46:05.000Z,28.4
2018-09-11T06:47:05.000Z,28.3
2018-09-11T06:48:50.000Z,28.5
2018-09-11T06:50:05.000Z,28.5
2018-09-11T06:51:05.000Z,28.5
2018-09-11T06:52:05.000Z,28.5
2018-09-11T06:53:05.000Z,28.6
2018-09-11T06:55:05.000Z,28.7
2018-09-11T06:57:05.000Z,28.9
2018-09-11T06:58:05.000Z,28.9
2018-09-11T07:00:05.000Z,29.1
2018-09-11T07:01:05.000Z,29.2
2018-09-11T07:03:05.000Z,29.3
2018-09-11T07:05:05.000Z,29.3
2018-09-11T07:06:50.000Z,29.3
2018-09-11T07:08:05.000Z,29.3
2018-09-11T07:09:05.000Z,29.4
2018-09-11T07:11:05.000Z,29.5
2018-09-11T07:12:05.000Z,29.6
2018-09-11T07:14:05.000Z,29.7
2018-09-11T07:15:05.000Z,29.7
2018-09-11T07:16:05.000Z,29.8
2018-09-11T07:18:05.000Z,29.9
2018-09-11T07:20:05.000Z,29.9
2018-09-11T07:21:05.000Z,29.9
2018-09-11T07:23:05.000Z,29.9
2018-09-11T07:25:05.000Z,29.9
2018-09-11T07:26:05.000Z,29.9
2018-09-11T07:27:05.000Z,30
2018-09-11T07:29:06.000Z,30
2018-09-11T07:31:06.000Z,30
2018-09-11T07:32:06.000Z,30.1
2018-09-11T07:33:06.000Z,30.1
2018-09-11T07:34:50.000Z,30.2
2018-09-11T07:36:06.000Z,30.2
2018-09-11T07:37:06.000Z,30.2
2018-09-11T07:39:06.000Z,29.9
2018-09-11T07:40:06.000Z,29.8
2018-09-11T07:41:06.000Z,29.7
2018-09-11T07:43:06.000Z,29.5
2018-09-11T07:45:06.000Z,29.2
2018-09-11T07:46:06.000Z,29.1
2018-09-11T07:47:06.000Z,29.1
2018-09-11T07:48:50.000Z,29
2018-09-11T07:50:06.000Z,29
2018-09-11T07:51:06.000Z,29
2018-09-11T07:53:06.000Z,29
2018-09-11T07:54:06.000Z,29
2018-09-11T07:55:06.000Z,29
2018-09-11T07:57:06.000Z,29.1
2018-09-11T07:58:06.000Z,29.1
2018-09-11T08:00:06.000Z,29.1
2018-09-11T08:02:06.000Z,29.1
2018-09-11T08:03:06.000Z,29.1
2018-09-11T08:05:06.000Z,29.1
2018-09-11T08:06:06.000Z,29.1
2018-09-11T08:08:06.000Z,29.1
2018-09-11T08:10:06.000Z,29
2018-09-11T08:12:06.000Z,28.9
2018-09-11T08:14:06.000Z,28.9
2018-09-11T08:15:06.000Z,28.9
2018-09-11T08:16:06.000Z,28.9
2018-09-11T08:18:06.000Z,28.9
2018-09-11T08:20:06.000Z,28.9
2018-09-11T08:22:06.000Z,28.9
2018-09-11T08:23:06.000Z,28.9
2018-09-11T08:24:06.000Z,29
2018-09-11T08:26:06.000Z,29
2018-09-11T08:27:06.000Z,29
2018-09-11T08:28:06.000Z,29.1
2018-09-11T08:30:06.000Z,29.2
2018-09-11T08:32:06.000Z,29.2
2018-09-11T08:34:06.000Z,29.1
2018-09-11T08:36:06.000Z,29.1
2018-09-11T08:37:06.000Z,29.1
2018-09-11T08:38:50.000Z,29.2
2018-09-11T08:40:06.000Z,29.2
2018-09-11T08:42:06.000Z,29.1
2018-09-11T08:44:06.000Z,29.1
2018-09-11T08:46:06.000Z,29
2018-09-11T08:48:06.000Z,29
2018-09-11T08:50:06.000Z,28.9
2018-09-11T08:52:06.000Z,29
2018-09-11T08:53:06.000Z,29
2018-09-11T08:54:06.000Z,29
2018-09-11T08:56:06.000Z,29.1
2018-09-11T08:57:06.000Z,29.1
2018-09-11T08:59:06.000Z,29.1
2018-09-11T09:01:06.000Z,29.1
2018-09-11T09:03:06.000Z,29.1
2018-09-11T09:05:06.000Z,29.1
2018-09-11T09:06:06.000Z,29.1
2018-09-11T09:07:06.000Z,29.2
2018-09-11T09:08:06.000Z,29.3
2018-09-11T09:10:06.000Z,29.4
2018-09-11T09:12:06.000Z,29.4
2018-09-11T09:14:06.000Z,29.4
2018-09-11T09:16:06.000Z,29.4
2018-09-11T09:17:06.000Z,29.5
2018-09-11T09:18:06.000Z,29.5
2018-09-11T09:20:06.000Z,29.6
2018-09-11T09:22:06.000Z,29.7
2018-09-11T09:23:06.000Z,29.7
2018-09-11T09:25:06.000Z,29.7
2018-09-11T09:26:06.000Z,29.7
2018-09-11T09:28:06.000Z,29.7
2018-09-11T09:29:06.000Z,29.7
2018-09-11T09:30:06.000Z,29.7
2018-09-11T09:32:06.000Z,29.7
2018-09-11T09:33:06.000Z,29.8
2018-09-11T09:35:06.000Z,29.8
2018-09-11T09:36:05.000Z,29.8
2018-09-11T09:38:05.000Z,29.9
2018-09-11T09:39:05.000Z,29.9
2018-09-11T09:41:05.000Z,29.9
2018-09-11T09:43:05.000Z,29.9
2018-09-11T09:45:05.000Z,29.8
2018-09-11T09:47:05.000Z,29.8
2018-09-11T09:48:50.000Z,29.8
2018-09-11T09:50:05.000Z,29.8
2018-09-11T09:52:05.000Z,29.8
2018-09-11T09:54:05.000Z,29.8
2018-09-11T09:55:05.000Z,29.9
2018-09-11T09:57:05.000Z,30
2018-09-11T09:59:05.000Z,30
2018-09-11T10:01:05.000Z,29.9
2018-09-11T10:03:05.000Z,29.9
2018-09-11T10:04:05.000Z,30
2018-09-11T10:05:05.000Z,30
2018-09-11T10:07:05.000Z,30.1
2018-09-11T10:09:05.000Z,30.1
2018-09-11T10:10:05.000Z,30.1
2018-09-11T10:12:05.000Z,30.1
2018-09-11T10:13:05.000Z,30.2
2018-09-11T10:15:05.000Z,30.3
2018-09-11T10:16:50.000Z,30.3
2018-09-11T10:18:05.000Z,30.3
2018-09-11T10:19:05.000Z,30.3
2018-09-11T10:21:05.000Z,30.3
2018-09-11T10:22:05.000Z,30.3
2018-09-11T10:23:05.000Z,30.3
2018-09-11T10:25:05.000Z,30.3
2018-09-11T10:26:05.000Z,30.4
2018-09-11T10:28:05.000Z,30.4
2018-09-11T10:30:05.000Z,30.4
2018-09-11T10:31:05.000Z,30.4
2018-09-11T10:32:50.000Z,30.5
2018-09-11T10:34:05.000Z,30.5
2018-09-11T10:35:05.000Z,30.5
2018-09-11T10:37:05.000Z,30.6
2018-09-11T10:39:05.000Z,30.6
2018-09-11T10:40:50.000Z,30.4
2018-09-11T10:43:05.000Z,30.5
2018-09-11T10:44:05.000Z,30.5
2018-09-11T10:45:05.000Z,30.6
2018-09-11T10:46:05.000Z,30.6
2018-09-11T10:48:05.000Z,30.7
2018-09-11T10:50:05.000Z,30.8
2018-09-11T10:51:05.000Z,30.8
2018-09-11T10:53:05.000Z,30.9
2018-09-11T10:55:05.000Z,30.9
2018-09-11T10:57:05.000Z,30.9
2018-09-11T10:58:05.000Z,30.9
2018-09-11T10:59:05.000Z,30.9
2018-09-11T11:01:05.000Z,31
2018-09-11T11:03:05.000Z,31
2018-09-11T11:05:05.000Z,31
2018-09-11T11:07:05.000Z,30.9
2018-09-11T11:08:05.000Z,30.9
2018-09-11T11:10:05.000Z,31
2018-09-11T11:11:05.000Z,31
2018-09-11T11:12:50.000Z,31.1
2018-09-11T11:14:05.000Z,31.1
2018-09-11T11:16:05.000Z,31
2018-09-11T11:18:05.000Z,31
2018-09-11T11:19:05.000Z,31
2018-09-11T11:21:05.000Z,31
2018-09-11T11:23:05.000Z,31
2018-09-11T11:25:05.000Z,31
2018-09-11T11:26:05.000Z,31
2018-09-11T11:27:05.000Z,31.1
2018-09-11T11:29:05.000Z,31.2
2018-09-11T11:31:05.000Z,31.2
2018-09-11T11:32:05.000Z,31.2
2018-09-11T11:33:05.000Z,31.3
2018-09-11T11:35:05.000Z,31.4
2018-09-11T11:36:05.000Z,31.4
2018-09-11T11:38:05.000Z,31.4
2018-09-11T11:39:05.000Z,31.4
2018-09-11T11:41:05.000Z,31.4
2018-09-11T11:42:05.000Z,31.4
2018-09-11T11:44:05.000Z,31.4
2018-09-11T11:45:05.000Z,31.4
2018-09-11T11:46:05.000Z,31.4
2018-09-11T11:48:05.000Z,31.4
2018-09-11T11:50:05.000Z,31.3
2018-09-11T11:51:05.000Z,31.3
2018-09-11T11:52:05.000Z,31.4
2018-09-11T11:54:05.000Z,31.4
2018-09-11T11:56:05.000Z,31.3
2018-09-11T11:57:05.000Z,31.4
2018-09-11T11:59:05.000Z,31.5
2018-09-11T12:00:05.000Z,31.5
2018-09-11T12:02:05.000Z,31.5
2018-09-11T12:04:05.000Z,31.6
2018-09-11T12:05:05.000Z,31.6
2018-09-11T12:07:05.000Z,31.6
2018-09-11T12:08:05.000Z,31.6
2018-09-11T12:10:05.000Z,31.6
2018-09-11T12:12:05.000Z,31.7
2018-09-11T12:14:05.000Z,31.6
2018-09-11T12:16:05.000Z,31.6
2018-09-11T12:18:05.000Z,31.5
2018-09-11T12:19:05.000Z,31.5
2018-09-11T12:20:50.000Z,31.6
2018-09-11T12:22:05.000Z,31.6
2018-09-11T12:23:05.000Z,31.6
2018-09-11T12:24:50.000Z,31.7
2018-09-11T12:26:05.000Z,31.7
2018-09-11T12:27:05.000Z,31.8
2018-09-11T12:29:05.000Z,31.8
2018-09-11T12:31:05.000Z,31.8
2018-09-11T12:33:05.000Z,31.8
2018-09-11T12:35:05.000Z,31.7
2018-09-11T12:36:05.000Z,31.7
2018-09-11T12:38:05.000Z,31.8
2018-09-11T12:40:05.000Z,31.8
2018-09-11T12:42:05.000Z,31.8
2018-09-11T12:44:05.000Z,31.9
2018-09-11T12:46:05.000Z,31.9
2018-09-11T12:47:06.000Z,31.9
2018-09-11T12:49:06.000Z,32
2018-09-11T12:51:06.000Z,32
2018-09-11T12:52:06.000Z,32.1
2018-09-11T12:54:06.000Z,32.1
2018-09-11T12:56:06.000Z,32.1
2018-09-11T12:57:06.000Z,32.1
2018-09-11T12:58:06.000Z,32.2
2018-09-11T12:59:50.000Z,32.3
2018-09-11T13:01:06.000Z,32.3
2018-09-11T13:02:06.000Z,32.3
2018-09-11T13:04:06.000Z,32.4
2018-09-11T13:06:06.000Z,32.4
2018-09-11T13:08:06.000Z,32.4
2018-09-11T13:10:06.000Z,32.4
2018-09-11T13:11:50.000Z,32.3
2018-09-11T13:13:06.000Z,32.3
2018-09-11T13:14:06.000Z,32.3
2018-09-11T13:15:06.000Z,32.3
2018-09-11T13:16:06.000Z,32.3
2018-09-11T13:18:06.000Z,32.3
2018-09-11T13:19:06.000Z,32.3
2018-09-11T13:21:06.000Z,32.3
2018-09-11T13:22:06.000Z,32.3
2018-09-11T13:24:06.000Z,32.3
2018-09-11T13:25:06.000Z,32.3
2018-09-11T13:27:06.000Z,32.4
2018-09-11T13:29:06.000Z,32.4
2018-09-11T13:30:50.000Z,32.6
2018-09-11T13:32:06.000Z,33
2018-09-11T13:33:06.000Z,33.8
2018-09-11T13:34:06.000Z,34.8
2018-09-11T13:35:06.000Z,35.9
2018-09-11T13:37:06.000Z,37.7
2018-09-11T13:39:06.000Z,38.9
2018-09-11T13:40:06.000Z,39.2
2018-09-11T13:41:06.000Z,39.2
2018-09-11T13:43:06.000Z,38.5
2018-09-11T13:45:06.000Z,37.1
2018-09-11T13:46:06.000Z,36.5
2018-09-11T13:48:06.000Z,35.6
2018-09-11T13:49:06.000Z,35.3
2018-09-11T13:50:50.000Z,34.7
2018-09-11T13:52:06.000Z,34.3
2018-09-11T13:54:05.000Z,33.9
2018-09-11T13:55:05.000Z,33.8
2018-09-11T13:57:06.000Z,33.6
2018-09-11T13:59:05.000Z,33.3
2018-09-11T14:00:06.000Z,33.2
2018-09-11T14:02:05.000Z,33.1
2018-09-11T14:03:05.000Z,33
2018-09-11T14:05:05.000Z,32.9
2018-09-11T14:06:05.000Z,32.9
2018-09-11T14:08:06.000Z,32.8
2018-09-11T14:45:58.000Z,30
2018-09-11T14:47:44.000Z,30.1
2018-09-11T14:49:44.000Z,30.4
2018-09-11T14:51:44.000Z,30.7
2018-09-11T14:53:45.000Z,30.9
2018-09-11T14:55:45.000Z,31.1
2018-09-11T14:57:45.000Z,31.3
2018-09-11T14:58:45.000Z,31.4
2018-09-11T15:00:45.000Z,31.5
2018-09-11T15:02:45.000Z,31.6
2018-09-11T15:04:45.000Z,31.6
2018-09-11T15:06:45.000Z,31.6
2018-09-11T15:07:45.000Z,31.7
2018-09-11T15:08:45.000Z,31.7
2018-09-11T15:10:29.000Z,31.9
2018-09-11T15:11:45.000Z,31.8
2018-09-11T15:13:45.000Z,31.8
2018-09-11T15:15:45.000Z,31.8
2018-09-11T15:17:45.000Z,31.6
2018-09-11T15:18:45.000Z,31.6
2018-09-11T15:20:45.000Z,31.7
2018-09-11T15:21:45.000Z,31.7
2018-09-11T15:23:45.000Z,31.8
2018-09-11T15:24:45.000Z,31.8
2018-09-11T15:25:45.000Z,31.9
2018-09-11T15:27:45.000Z,31.9
2018-09-11T15:29:45.000Z,31.9
2018-09-11T15:30:45.000Z,31.9
2018-09-11T15:32:45.000Z,31.9
2018-09-11T15:33:45.000Z,31.9
2018-09-11T15:34:45.000Z,32
2018-09-11T15:36:45.000Z,31.9
2018-09-11T15:37:45.000Z,31.9
2018-09-11T15:38:45.000Z,32
2018-09-11T15:40:45.000Z,32
2018-09-11T15:42:45.000Z,32
2018-09-11T15:43:45.000Z,31.9
2018-09-11T15:44:45.000Z,32
2018-09-11T15:45:45.000Z,32
2018-09-11T15:47:45.000Z,32
2018-09-11T15:48:45.000Z,32
2018-09-11T15:50:45.000Z,31.9
2018-09-11T15:51:45.000Z,31.9
2018-09-11T15:53:29.000Z,31.9
2018-09-11T15:54:45.000Z,31.8
2018-09-11T15:56:45.000Z,31.8
2018-09-11T15:58:45.000Z,31.8
2018-09-11T16:00:45.000Z,31.7
2018-09-11T16:02:30.000Z,31.7
2018-09-11T16:03:45.000Z,31.7
2018-09-11T16:05:45.000Z,31.7
2018-09-11T16:06:45.000Z,31.7
2018-09-11T16:08:45.000Z,31.7
2018-09-11T16:09:45.000Z,31.7
2018-09-11T16:13:31.000Z,31.3
2018-09-11T16:14:31.000Z,31.3
2018-09-11T16:15:31.000Z,31.4
2018-09-11T16:16:31.000Z,31.4
2018-09-11T16:18:31.000Z,31.5
2018-09-11T16:19:31.000Z,31.5
2018-09-11T16:21:31.000Z,31.6
2018-09-11T16:22:31.000Z,31.6
2018-09-11T16:23:31.000Z,31.6
2018-09-11T16:25:31.000Z,31.7
2018-09-11T16:27:31.000Z,31.6
2018-09-11T16:29:31.000Z,31.6
2018-09-11T16:30:31.000Z,31.5
2018-09-11T16:32:31.000Z,31.5
2018-09-11T16:34:31.000Z,31.5
2018-09-11T16:36:31.000Z,31.5
2018-09-11T16:38:31.000Z,31.5
2018-09-11T16:40:31.000Z,31.5
2018-09-11T16:41:31.000Z,31.5
2018-09-11T16:43:31.000Z,31.5
2018-09-11T16:45:31.000Z,31.5
2018-09-11T16:47:15.000Z,31.5
2018-09-11T16:48:31.000Z,31.5
2018-09-11T16:49:31.000Z,31.5
2018-09-11T16:50:31.000Z,31.6
2018-09-11T16:52:31.000Z,31.7
2018-09-11T16:54:31.000Z,31.7
2018-09-11T16:55:31.000Z,31.6
2018-09-11T16:57:31.000Z,31.7
2018-09-11T16:58:31.000Z,31.7
2018-09-11T16:59:30.000Z,31.8
2018-09-11T17:01:15.000Z,31.8
2018-09-11T17:02:30.000Z,31.8
2018-09-11T17:04:30.000Z,31.7
2018-09-11T17:06:30.000Z,31.7
2018-09-11T17:08:30.000Z,31.6
2018-09-11T17:10:30.000Z,31.6
2018-09-11T17:11:30.000Z,31.6
2018-09-11T17:13:30.000Z,31.7
2018-09-11T17:15:30.000Z,31.7
2018-09-11T17:16:30.000Z,31.7
2018-09-11T17:17:30.000Z,31.8
2018-09-11T17:19:30.000Z,31.8
2018-09-11T17:20:30.000Z,31.8
2018-09-11T17:22:15.000Z,31.8
2018-09-11T17:23:30.000Z,31.8
2018-09-11T17:24:30.000Z,31.8
2018-09-11T17:25:30.000Z,31.8
2018-09-11T17:26:30.000Z,31.9
2018-09-11T17:28:30.000Z,31.9
2018-09-11T17:30:30.000Z,31.8
2018-09-11T17:31:30.000Z,31.8
2018-09-11T17:33:30.000Z,31.8
2018-09-11T17:34:30.000Z,31.7
2018-09-11T17:35:30.000Z,31.8
2018-09-11T17:36:30.000Z,31.8
2018-09-11T17:37:30.000Z,31.8
2018-09-11T17:39:15.000Z,31.9
2018-09-11T17:40:30.000Z,31.8
2018-09-11T17:42:15.000Z,31.8
2018-09-11T17:43:30.000Z,31.7
2018-09-11T17:45:30.000Z,31.6
2018-09-11T17:47:15.000Z,31.5
2018-09-11T17:48:30.000Z,31.5
2018-09-11T17:49:30.000Z,31.5
2018-09-11T17:51:30.000Z,31.5
2018-09-11T17:53:30.000Z,31.5
2018-09-11T17:54:30.000Z,31.5
2018-09-11T17:56:30.000Z,31.5
2018-09-11T17:57:30.000Z,31.5
2018-09-11T17:58:30.000Z,31.5
2018-09-11T18:00:30.000Z,31.5
2018-09-11T18:01:30.000Z,31.5
2018-09-11T18:03:31.000Z,31.6
2018-09-11T18:05:31.000Z,31.5
2018-09-11T18:06:31.000Z,31.4
2018-09-11T18:07:31.000Z,31.5
2018-09-11T18:09:31.000Z,31.5
2018-09-11T18:10:31.000Z,31.5
2018-09-11T18:11:31.000Z,31.5
2018-09-11T18:12:31.000Z,31.5
2018-09-11T18:14:31.000Z,31.6
2018-09-11T18:16:31.000Z,31.5
2018-09-11T18:18:31.000Z,31.4
2018-09-11T18:19:31.000Z,31.4
2018-09-11T18:20:31.000Z,31.4
2018-09-11T18:22:31.000Z,31.4
2018-09-11T18:24:31.000Z,31.4
2018-09-11T18:26:31.000Z,31.3
2018-09-11T18:28:31.000Z,31.3
2018-09-11T18:29:31.000Z,31.3
2018-09-11T18:30:31.000Z,31.3
2018-09-11T18:32:31.000Z,31.4
2018-09-11T18:33:31.000Z,31.4
2018-09-11T18:35:31.000Z,31.5
2018-09-11T18:36:31.000Z,31.5
2018-09-11T18:38:31.000Z,31.5
2018-09-11T18:39:31.000Z,31.5
2018-09-11T18:40:31.000Z,31.5
2018-09-11T18:42:31.000Z,31.5
2018-09-11T18:44:31.000Z,31.5
2018-09-11T18:45:31.000Z,31.5
2018-09-11T18:47:31.000Z,31.5
2018-09-11T18:49:31.000Z,31.4
2018-09-11T18:51:31.000Z,31.4
2018-09-11T18:52:31.000Z,31.4
2018-09-11T18:54:31.000Z,31.4
2018-09-11T18:56:31.000Z,31.4
2018-09-11T18:57:31.000Z,31.4
2018-09-11T18:59:15.000Z,31.4
2018-09-11T19:00:31.000Z,31.3
2018-09-11T19:01:31.000Z,31.4
2018-09-11T19:03:31.000Z,31.4
2018-09-11T19:04:31.000Z,31.4
2018-09-11T19:05:31.000Z,31.4
2018-09-11T19:07:30.000Z,31.4
2018-09-11T19:09:30.000Z,31.4
2018-09-11T19:11:30.000Z,31.3
2018-09-11T19:13:30.000Z,31.3
2018-09-11T19:14:30.000Z,31.3
2018-09-11T19:15:30.000Z,31.3
2018-09-11T19:17:30.000Z,31.2
2018-09-11T19:18:30.000Z,31.2
2018-09-11T19:20:30.000Z,31.2
2018-09-11T19:21:30.000Z,31.2
2018-09-11T19:23:30.000Z,31.3
2018-09-11T19:25:30.000Z,31.3
2018-09-11T19:27:30.000Z,31.2
2018-09-11T19:28:30.000Z,31.2
2018-09-11T19:30:30.000Z,31.3
2018-09-11T19:31:30.000Z,31.3
2018-09-11T19:32:30.000Z,31.3
2018-09-11T19:34:15.000Z,31.4
2018-09-11T19:35:30.000Z,31.3
2018-09-11T19:37:15.000Z,31.3
2018-09-11T19:38:30.000Z,31.3
2018-09-11T19:40:30.000Z,31.2
2018-09-11T19:42:30.000Z,31.1
2018-09-11T19:44:30.000Z,31
2018-09-11T19:45:30.000Z,31
2018-09-11T19:47:30.000Z,31
2018-09-11T19:49:30.000Z,31.1
2018-09-11T19:50:30.000Z,31.1
2018-09-11T19:52:15.000Z,31.2
2018-09-11T19:53:30.000Z,31.1
2018-09-11T19:54:30.000Z,31.2
2018-09-11T19:56:30.000Z,31.2
2018-09-11T19:58:30.000Z,31.2
2018-09-11T19:59:30.000Z,31.2
2018-09-11T20:00:30.000Z,31.2
2018-09-11T20:01:30.000Z,31.2
2018-09-11T20:03:30.000Z,31.2
2018-09-11T20:05:30.000Z,31.2
2018-09-11T20:07:30.000Z,31.1
2018-09-11T20:09:30.000Z,31
2018-09-11T20:10:30.000Z,31
2018-09-11T20:11:30.000Z,31.1
2018-09-11T20:13:30.000Z,31.2
2018-09-11T20:15:30.000Z,31.2
2018-09-11T20:17:30.000Z,31.1
2018-09-11T20:18:30.000Z,31.1
2018-09-11T20:19:30.000Z,31.2
2018-09-11T20:20:30.000Z,31.3
2018-09-11T20:21:30.000Z,31.3
2018-09-11T20:22:30.000Z,31.3
2018-09-11T20:23:30.000Z,31.4
2018-09-11T20:25:30.000Z,31.4
2018-09-11T20:27:30.000Z,31.4
2018-09-11T20:28:30.000Z,31.4
2018-09-11T20:30:30.000Z,31.3
2018-09-11T20:31:30.000Z,31.3
2018-09-11T20:33:30.000Z,31.3
2018-09-11T20:35:30.000Z,31.2
2018-09-11T20:36:30.000Z,31.2
2018-09-11T20:38:30.000Z,31.2
2018-09-11T20:40:30.000Z,31.1
2018-09-11T20:42:30.000Z,31
2018-09-11T20:44:30.000Z,30.9
2018-09-11T20:45:30.000Z,30.9
2018-09-11T20:46:30.000Z,30.9
2018-09-11T20:48:30.000Z,30.9
2018-09-11T20:49:30.000Z,30.9
2018-09-11T20:50:30.000Z,31
2018-09-11T20:52:30.000Z,31
2018-09-11T20:54:30.000Z,31.1
2018-09-11T20:56:30.000Z,31.1
2018-09-11T20:58:30.000Z,31
2018-09-11T21:00:30.000Z,30.9
2018-09-11T21:02:30.000Z,30.9
2018-09-11T21:04:30.000Z,30.8
2018-09-11T21:06:30.000Z,30.8
2018-09-11T21:07:30.000Z,30.8
2018-09-11T21:08:30.000Z,30.8
2018-09-11T21:10:30.000Z,30.8
2018-09-11T21:12:30.000Z,30.8
2018-09-11T21:14:31.000Z,30.8
2018-09-11T21:16:31.000Z,30.8
2018-09-11T21:17:31.000Z,30.8
2018-09-11T21:19:31.000Z,30.9
2018-09-11T21:21:31.000Z,30.9
2018-09-11T21:23:31.000Z,30.8
2018-09-11T21:24:31.000Z,30.9
2018-09-11T21:26:15.000Z,30.9
2018-09-11T21:27:31.000Z,30.9